createdAt,value
2023-05-05T00:00:01.795Z,100.00
2023-05-05T00:02:29.282Z,100.00
2023-05-05T00:04:57.124Z,100.00
2023-05-05T00:07:24.589Z,100.00
2023-05-05T00:09:52.339Z,100.00
2023-05-05T00:12:19.781Z,100.00
2023-05-05T00:14:47.435Z,100.00
2023-05-05T00:17:14.890Z,100.00
2023-05-05T00:19:43.024Z,100.00
2023-05-05T00:22:10.330Z,100.00
2023-05-05T00:24:37.836Z,100.00
2023-05-05T00:27:05.109Z,100.00
2023-05-05T00:29:32.968Z,100.00
2023-05-05T00:32:00.276Z,100.00
2023-05-05T00:34:28.028Z,100.00
2023-05-05T00:36:55.299Z,100.00
2023-05-05T00:39:23.132Z,100.00
2023-05-05T00:41:50.826Z,100.00
2023-05-05T00:44:18.480Z,100.00
2023-05-05T00:46:45.847Z,100.00
2023-05-05T00:49:13.840Z,100.00
2023-05-05T00:51:41.273Z,100.00
2023-05-05T00:54:10.843Z,100.00
2023-05-05T00:56:38.660Z,100.00
2023-05-05T00:59:06.469Z,100.00
2023-05-05T01:01:34.000Z,100.00
2023-05-05T01:04:01.682Z,100.00
2023-05-05T01:07:10.880Z,100.00
2023-05-05T01:10:18.186Z,100.00
2023-05-05T01:13:10.764Z,100.00
2023-05-05T01:15:42.544Z,100.00
2023-05-05T01:18:12.190Z,100.00
2023-05-05T01:21:07.962Z,100.00
2023-05-05T01:23:44.511Z,100.00
2023-05-05T01:26:49.821Z,100.00
2023-05-05T01:29:38.927Z,100.00
2023-05-05T01:32:15.167Z,100.00
2023-05-05T01:34:47.635Z,100.00
2023-05-05T01:37:52.467Z,100.00
2023-05-05T01:40:38.428Z,100.00
2023-05-05T01:43:07.818Z,100.00
2023-05-05T01:45:38.565Z,100.00
2023-05-05T01:48:07.361Z,100.00
2023-05-05T01:50:34.910Z,100.00
2023-05-05T01:53:04.019Z,100.00
2023-05-05T01:55:31.383Z,100.00
2023-05-05T01:57:59.348Z,100.00
2023-05-05T02:00:27.639Z,100.00
2023-05-05T02:03:00.144Z,100.00
2023-05-05T02:05:28.159Z,100.00
2023-05-05T02:07:58.588Z,100.00
2023-05-05T02:10:26.477Z,100.00
2023-05-05T02:12:54.445Z,100.00
2023-05-05T02:15:22.836Z,100.00
2023-05-05T02:17:54.948Z,100.00
2023-05-05T02:20:22.907Z,100.00
2023-05-05T02:22:51.086Z,100.00
2023-05-05T02:25:18.629Z,100.00
2023-05-05T02:27:48.507Z,100.00
2023-05-05T02:30:18.511Z,100.00
2023-05-05T02:32:54.462Z,100.00
2023-05-05T02:35:31.700Z,100.00
2023-05-05T02:38:05.633Z,100.00
2023-05-05T02:40:40.901Z,100.00
2023-05-05T02:43:11.798Z,100.00
2023-05-05T02:45:39.369Z,100.00
2023-05-05T02:48:07.396Z,100.00
2023-05-05T02:50:39.081Z,100.00
2023-05-05T02:53:25.808Z,100.00
2023-05-05T02:55:56.425Z,100.00
2023-05-05T02:58:31.898Z,100.00
2023-05-05T03:01:32.159Z,100.00
2023-05-05T03:04:25.389Z,100.00
2023-05-05T03:06:58.331Z,100.00
2023-05-05T03:09:45.916Z,100.00
2023-05-05T03:12:19.487Z,100.00
2023-05-05T03:14:58.819Z,100.00
2023-05-05T03:17:29.988Z,100.00
2023-05-05T03:19:59.502Z,100.00
2023-05-05T03:22:28.192Z,100.00
2023-05-05T03:24:56.755Z,100.00
2023-05-05T03:27:24.989Z,100.00
2023-05-05T03:29:52.926Z,100.00
2023-05-05T03:32:21.172Z,100.00
2023-05-05T03:34:48.880Z,100.00
2023-05-05T03:37:16.634Z,100.00
2023-05-05T03:39:44.274Z,100.00
2023-05-05T03:42:12.916Z,100.00
2023-05-05T03:44:40.962Z,100.00
2023-05-05T03:47:08.466Z,100.00
2023-05-05T03:49:38.377Z,100.00
2023-05-05T03:52:05.963Z,100.00
2023-05-05T03:54:33.874Z,100.00
2023-05-05T03:57:01.225Z,100.00
2023-05-05T03:59:29.064Z,100.00
2023-05-05T04:01:56.965Z,100.00
2023-05-05T04:04:24.908Z,100.00
2023-05-05T04:06:52.642Z,100.00
2023-05-05T04:09:20.572Z,100.00
2023-05-05T04:11:48.021Z,100.00
2023-05-05T04:14:16.558Z,100.00
2023-05-05T04:16:44.082Z,100.00
2023-05-05T04:19:13.307Z,100.00
2023-05-05T04:21:41.338Z,100.00
2023-05-05T04:24:09.860Z,100.00
2023-05-05T04:26:37.366Z,100.00
2023-05-05T04:29:05.098Z,100.00
2023-05-05T04:31:32.925Z,100.00
2023-05-05T04:34:00.748Z,100.00
2023-05-05T04:36:28.456Z,100.00
2023-05-05T04:38:56.161Z,100.00
2023-05-05T04:41:23.929Z,100.00
2023-05-05T04:43:51.823Z,100.00
2023-05-05T04:46:19.126Z,100.00
2023-05-05T04:48:47.051Z,100.00
2023-05-05T04:51:14.659Z,100.00
2023-05-05T04:53:42.571Z,98.73
2023-05-05T04:56:09.879Z,97.19
2023-05-05T04:58:37.681Z,91.51
2023-05-05T05:01:06.605Z,93.91
2023-05-05T05:03:34.267Z,93.65
2023-05-05T05:06:02.558Z,91.65
2023-05-05T05:08:30.295Z,92.31
2023-05-05T05:10:57.609Z,91.67
2023-05-05T05:13:25.620Z,84.69
2023-05-05T05:15:52.972Z,82.37
2023-05-05T05:18:20.612Z,78.70
2023-05-05T05:20:49.745Z,80.00
2023-05-05T05:23:17.489Z,80.38
2023-05-05T05:25:46.181Z,76.77
2023-05-05T05:28:15.986Z,70.54
2023-05-05T05:30:48.746Z,70.22
2023-05-05T05:33:16.376Z,71.80
2023-05-05T05:35:45.005Z,70.92
2023-05-05T05:38:13.087Z,72.03
2023-05-05T05:40:40.508Z,67.64
2023-05-05T05:43:08.308Z,65.42
2023-05-05T05:45:37.724Z,63.20
2023-05-05T05:48:07.294Z,66.54
2023-05-05T05:50:36.080Z,66.73
2023-05-05T05:53:03.906Z,65.75
2023-05-05T05:55:31.660Z,62.23
2023-05-05T05:57:59.887Z,66.09
2023-05-05T06:00:27.324Z,68.09
2023-05-05T06:03:02.411Z,65.67
2023-05-05T06:05:34.606Z,66.45
2023-05-05T06:08:02.414Z,63.16
2023-05-05T06:10:31.567Z,65.91
2023-05-05T06:13:06.468Z,64.31
2023-05-05T06:15:36.189Z,65.58
2023-05-05T06:18:05.575Z,64.94
2023-05-05T06:20:33.163Z,65.18
2023-05-05T06:23:00.970Z,67.16
2023-05-05T06:25:31.750Z,66.00
2023-05-05T06:28:00.131Z,70.00
2023-05-05T06:30:27.492Z,62.73
2023-05-05T06:32:55.279Z,62.73
2023-05-05T06:35:22.787Z,63.98
2023-05-05T06:37:50.514Z,63.94
2023-05-05T06:40:17.900Z,67.72
2023-05-05T06:42:45.795Z,67.22
2023-05-05T06:45:18.098Z,66.47
2023-05-05T06:47:45.718Z,66.61
2023-05-05T06:50:13.153Z,63.45
2023-05-05T06:52:41.575Z,62.49
2023-05-05T06:55:10.090Z,61.49
2023-05-05T06:57:37.869Z,64.50
2023-05-05T07:00:06.885Z,66.10
2023-05-05T07:02:35.205Z,66.93
2023-05-05T07:05:03.408Z,65.74
2023-05-05T07:07:32.641Z,62.00
2023-05-05T07:10:00.446Z,63.52
2023-05-05T07:12:33.702Z,60.74
2023-05-05T07:15:07.029Z,63.60
2023-05-05T07:17:43.696Z,59.14
2023-05-05T07:20:12.249Z,57.71
2023-05-05T07:22:39.950Z,58.85
2023-05-05T07:25:07.822Z,58.19
2023-05-05T07:27:36.029Z,55.17
2023-05-05T07:30:07.886Z,57.29
2023-05-05T07:32:37.926Z,58.90
2023-05-05T07:35:06.373Z,56.22
2023-05-05T07:37:34.308Z,58.06
2023-05-05T07:40:01.617Z,57.26
2023-05-05T07:42:29.224Z,58.54
2023-05-05T07:44:56.822Z,52.92
2023-05-05T07:47:24.428Z,55.98
2023-05-05T07:49:51.752Z,51.22
2023-05-05T07:52:21.507Z,52.10
2023-05-05T07:54:54.766Z,50.99
2023-05-05T07:57:22.440Z,52.32
2023-05-05T07:59:49.859Z,51.32
2023-05-05T08:02:17.755Z,51.70
2023-05-05T08:04:45.114Z,50.74
2023-05-05T08:07:12.855Z,50.84
2023-05-05T08:09:40.170Z,52.05
2023-05-05T08:12:07.693Z,51.67
2023-05-05T08:14:35.106Z,48.83
2023-05-05T08:17:02.758Z,49.30
2023-05-05T08:19:30.062Z,49.13
2023-05-05T08:22:01.031Z,51.59
2023-05-05T08:24:28.785Z,52.34
2023-05-05T08:26:56.787Z,51.17
2023-05-05T08:29:24.340Z,50.69
2023-05-05T08:31:52.535Z,53.70
2023-05-05T08:34:20.069Z,51.62
2023-05-05T08:36:49.402Z,52.89
2023-05-05T08:39:16.912Z,52.56
2023-05-05T08:41:44.776Z,54.53
2023-05-05T08:44:12.323Z,53.56
2023-05-05T08:46:41.359Z,52.98
2023-05-05T08:49:13.993Z,54.95
2023-05-05T08:51:43.299Z,52.40
2023-05-05T08:54:15.409Z,52.97
2023-05-05T08:56:45.112Z,51.36
2023-05-05T08:59:13.567Z,50.92
2023-05-05T09:01:43.184Z,51.64
2023-05-05T09:04:11.586Z,54.74
2023-05-05T09:06:39.137Z,53.76
2023-05-05T09:09:07.011Z,52.65
2023-05-05T09:11:34.991Z,53.08
2023-05-05T09:16:47.138Z,57.78
2023-05-05T09:19:14.553Z,55.68
2023-05-05T09:21:51.329Z,54.13
2023-05-05T09:24:18.914Z,56.15
2023-05-05T09:26:47.645Z,55.22
2023-05-05T09:29:19.677Z,56.04
2023-05-05T09:32:05.875Z,57.03
2023-05-05T09:34:35.239Z,55.58
2023-05-05T09:37:03.466Z,55.26
2023-05-05T09:39:30.950Z,52.04
2023-05-05T09:41:58.766Z,51.90
2023-05-05T09:44:38.462Z,52.61
2023-05-05T09:47:18.098Z,53.91
2023-05-05T09:50:11.229Z,54.87
2023-05-05T09:52:38.868Z,54.27
2023-05-05T09:55:07.162Z,54.79
2023-05-05T09:57:34.995Z,56.44
2023-05-05T10:00:04.275Z,54.69
2023-05-05T10:02:38.828Z,57.71
2023-05-05T10:05:11.696Z,58.18
2023-05-05T10:07:41.486Z,57.27
2023-05-05T10:10:17.732Z,57.82
2023-05-05T10:12:49.880Z,57.54
2023-05-05T10:15:17.629Z,58.93
2023-05-05T10:20:21.294Z,60.22
2023-05-05T10:22:53.566Z,58.34
2023-05-05T10:25:31.715Z,59.51
2023-05-05T10:28:05.205Z,61.03
2023-05-05T10:30:32.528Z,58.47
2023-05-05T10:33:30.895Z,58.29
2023-05-05T10:36:02.632Z,59.89
2023-05-05T10:38:31.344Z,59.92
2023-05-05T10:41:00.159Z,59.25
2023-05-05T10:43:31.666Z,57.07
2023-05-05T10:45:59.433Z,57.73
2023-05-05T10:48:37.908Z,57.31
2023-05-05T10:51:21.113Z,58.84
2023-05-05T10:54:00.516Z,58.66
2023-05-05T10:56:32.811Z,61.57
2023-05-05T10:59:01.040Z,58.13
2023-05-05T11:01:31.701Z,58.58
2023-05-05T11:04:22.372Z,58.58
2023-05-05T11:07:10.301Z,59.43
2023-05-05T11:09:55.940Z,60.96
2023-05-05T11:12:23.285Z,61.41
2023-05-05T11:15:31.411Z,63.41
2023-05-05T11:18:01.919Z,62.62
2023-05-05T11:20:37.315Z,59.64
2023-05-05T11:23:04.979Z,56.77
2023-05-05T11:25:43.461Z,58.05
2023-05-05T11:28:21.184Z,57.95
2023-05-05T11:30:54.923Z,59.22
2023-05-05T11:33:32.656Z,59.22
2023-05-05T11:36:04.091Z,61.08
2023-05-05T11:38:39.080Z,61.17
2023-05-05T11:41:14.647Z,62.38
2023-05-05T11:43:42.507Z,62.34
2023-05-05T11:46:14.437Z,60.76
2023-05-05T11:48:49.299Z,63.21
2023-05-05T11:51:18.451Z,63.19
2023-05-05T11:53:47.393Z,62.19
2023-05-05T11:56:22.562Z,62.96
2023-05-05T11:58:50.253Z,62.06
2023-05-05T12:01:18.076Z,61.32
2023-05-05T12:03:46.095Z,63.96
2023-05-05T12:06:13.801Z,65.40
2023-05-05T12:08:41.575Z,61.73
2023-05-05T12:11:10.853Z,61.26
2023-05-05T12:13:38.510Z,62.13
2023-05-05T12:16:13.176Z,61.98
2023-05-05T12:18:41.192Z,61.08
2023-05-05T12:21:19.052Z,63.34
2023-05-05T12:23:46.686Z,60.86
2023-05-05T12:26:32.667Z,60.72
2023-05-05T12:29:00.968Z,60.79
2023-05-05T12:31:38.205Z,60.40
2023-05-05T12:34:07.133Z,64.98
2023-05-05T12:36:35.965Z,64.06
2023-05-05T12:39:05.430Z,63.33
2023-05-05T12:41:33.625Z,62.57
2023-05-05T12:44:02.014Z,62.46
2023-05-05T12:46:31.258Z,62.81
2023-05-05T12:49:05.360Z,60.99
2023-05-05T12:51:34.571Z,63.34
2023-05-05T12:54:10.026Z,61.42
2023-05-05T12:56:45.679Z,61.83
2023-05-05T12:59:30.139Z,62.01
2023-05-05T13:02:02.501Z,62.25
2023-05-05T13:04:29.923Z,65.10
2023-05-05T13:07:16.705Z,62.78
2023-05-05T13:09:44.397Z,62.48
2023-05-05T13:12:12.521Z,63.06
2023-05-05T13:14:40.939Z,64.89
2023-05-05T13:17:08.956Z,64.80
2023-05-05T13:19:41.864Z,66.03
2023-05-05T13:22:10.506Z,66.34
2023-05-05T13:24:49.702Z,65.34
2023-05-05T13:27:19.034Z,65.79
2023-05-05T13:29:46.245Z,66.02
2023-05-05T13:32:13.793Z,65.41
2023-05-05T13:34:42.673Z,66.83
2023-05-05T13:37:10.422Z,69.17
2023-05-05T13:39:37.782Z,67.30
2023-05-05T13:42:05.561Z,66.95
2023-05-05T13:44:33.046Z,65.09
2023-05-05T13:47:00.873Z,66.08
2023-05-05T13:49:28.203Z,65.79
2023-05-05T13:51:56.567Z,63.83
2023-05-05T13:54:23.969Z,65.65
2023-05-05T13:56:51.695Z,66.69
2023-05-05T13:59:19.122Z,67.21
2023-05-05T14:01:46.807Z,67.91
2023-05-05T14:04:14.391Z,66.12
2023-05-05T14:06:42.008Z,62.83
2023-05-05T14:09:09.293Z,64.70
2023-05-05T14:11:36.814Z,65.64
2023-05-05T14:14:04.095Z,65.62
2023-05-05T14:16:32.020Z,64.84
2023-05-05T14:18:59.372Z,63.40
2023-05-05T14:21:27.695Z,62.69
2023-05-05T14:23:55.706Z,60.36
2023-05-05T14:26:23.519Z,61.09
2023-05-05T14:28:51.269Z,62.57
2023-05-05T14:31:19.307Z,61.46
2023-05-05T14:33:46.685Z,61.02
2023-05-05T14:36:14.626Z,60.88
2023-05-05T14:38:43.156Z,63.22
2023-05-05T14:41:11.237Z,62.96
2023-05-05T14:43:38.609Z,62.74
2023-05-05T14:46:07.599Z,61.01
2023-05-05T14:48:35.278Z,63.04
2023-05-05T14:51:03.400Z,60.01
2023-05-05T14:53:30.801Z,61.11
2023-05-05T14:56:01.169Z,58.09
2023-05-05T14:58:28.489Z,57.11
2023-05-05T15:00:56.357Z,59.48
2023-05-05T15:03:23.628Z,59.63
2023-05-05T15:05:51.562Z,60.76
2023-05-05T15:08:21.460Z,62.22
2023-05-05T15:10:49.084Z,61.82
2023-05-05T15:13:17.351Z,58.96
2023-05-05T15:15:45.432Z,59.60
2023-05-05T15:18:12.740Z,59.29
2023-05-05T15:20:40.612Z,60.30
2023-05-05T15:23:08.069Z,60.31
2023-05-05T15:25:36.758Z,60.47
2023-05-05T15:28:04.307Z,59.28
2023-05-05T15:30:32.243Z,58.72
2023-05-05T15:32:59.699Z,59.03
2023-05-05T15:35:27.391Z,58.10
2023-05-05T15:37:54.976Z,59.89
2023-05-05T15:40:22.785Z,60.30
2023-05-05T15:42:50.028Z,60.84
2023-05-05T15:45:17.782Z,61.20
2023-05-05T15:47:46.193Z,61.33
2023-05-05T15:50:14.428Z,63.03
2023-05-05T15:52:41.959Z,62.56
2023-05-05T15:55:10.510Z,63.78
2023-05-05T15:57:39.999Z,61.64
2023-05-05T16:00:08.921Z,62.83
2023-05-05T16:02:37.635Z,63.99
2023-05-05T16:05:05.715Z,65.06
2023-05-05T16:07:33.039Z,65.29
2023-05-05T16:10:00.945Z,66.50
2023-05-05T16:12:28.313Z,62.12
2023-05-05T16:14:56.012Z,62.38
2023-05-05T16:17:23.399Z,66.99
2023-05-05T16:19:51.278Z,62.91
2023-05-05T16:22:18.628Z,63.87
2023-05-05T16:24:47.269Z,64.20
2023-05-05T16:27:15.306Z,63.87
2023-05-05T16:29:43.023Z,63.82
2023-05-05T16:32:10.288Z,64.73
2023-05-05T16:34:38.089Z,65.68
2023-05-05T16:37:06.045Z,66.20
2023-05-05T16:39:35.548Z,66.43
2023-05-05T16:42:03.789Z,67.25
2023-05-05T16:44:31.509Z,66.47
2023-05-05T16:46:58.854Z,68.31
2023-05-05T16:49:26.630Z,69.19
2023-05-05T16:51:54.016Z,69.33
2023-05-05T16:54:21.605Z,68.56
2023-05-05T16:56:48.931Z,68.51
2023-05-05T16:59:18.462Z,68.58
2023-05-05T17:01:45.930Z,68.16
2023-05-05T17:04:13.790Z,69.57
2023-05-05T17:06:41.143Z,69.66
2023-05-05T17:09:08.846Z,69.51
2023-05-05T17:11:36.243Z,71.15
2023-05-05T17:14:03.818Z,71.38
2023-05-05T17:16:31.408Z,72.31
2023-05-05T17:18:59.033Z,73.97
2023-05-05T17:21:27.077Z,74.87
2023-05-05T17:23:54.780Z,75.68
2023-05-05T17:26:23.186Z,76.14
2023-05-05T17:28:50.943Z,77.54
2023-05-05T17:31:18.184Z,77.90
2023-05-05T17:33:45.970Z,78.24
2023-05-05T17:36:13.330Z,78.21
2023-05-05T17:38:41.080Z,78.91
2023-05-05T17:41:08.478Z,78.76
2023-05-05T17:43:36.122Z,78.63
2023-05-05T17:46:03.488Z,79.68
2023-05-05T17:48:31.437Z,79.73
2023-05-05T17:50:58.707Z,79.87
2023-05-05T17:53:26.653Z,80.57
2023-05-05T17:55:54.753Z,80.96
2023-05-05T17:58:22.443Z,81.56
2023-05-05T18:00:49.678Z,83.35
2023-05-05T18:03:17.637Z,84.04
2023-05-05T18:05:44.935Z,84.57
2023-05-05T18:08:12.862Z,85.94
2023-05-05T18:10:40.199Z,87.86
2023-05-05T18:13:08.085Z,88.24
2023-05-05T18:15:35.706Z,89.89
2023-05-05T18:18:03.471Z,90.97
2023-05-05T18:20:31.219Z,91.98
2023-05-05T18:22:59.637Z,92.64
2023-05-05T18:25:29.246Z,94.23
2023-05-05T18:27:58.147Z,95.01
2023-05-05T18:30:26.450Z,94.94
2023-05-05T18:32:56.845Z,96.61
2023-05-05T18:35:25.502Z,97.27
2023-05-05T18:37:55.718Z,98.43
2023-05-05T18:40:25.739Z,99.39
2023-05-05T18:42:56.486Z,100.00
2023-05-05T18:45:27.204Z,100.00
2023-05-05T18:47:56.679Z,100.00
2023-05-05T18:50:26.950Z,100.00
2023-05-05T18:52:56.420Z,100.00
2023-05-05T18:55:26.424Z,100.00
2023-05-05T18:57:58.138Z,100.00
2023-05-05T19:00:27.274Z,100.00
2023-05-05T19:02:55.379Z,100.00
2023-05-05T19:05:22.795Z,100.00
2023-05-05T19:07:51.140Z,100.00
2023-05-05T19:10:18.948Z,100.00
2023-05-05T19:12:46.945Z,100.00
2023-05-05T19:15:15.160Z,100.00
2023-05-05T19:17:43.493Z,100.00
2023-05-05T19:20:12.323Z,100.00
2023-05-05T19:22:41.198Z,100.00
2023-05-05T19:25:10.066Z,100.00
2023-05-05T19:27:38.801Z,100.00
2023-05-05T19:30:07.583Z,100.00
2023-05-05T19:32:36.496Z,100.00
2023-05-05T19:35:04.342Z,100.00
2023-05-05T19:37:34.606Z,100.00
2023-05-05T19:40:02.933Z,100.00
2023-05-05T19:42:31.168Z,100.00
2023-05-05T19:44:59.222Z,100.00
2023-05-05T19:47:27.977Z,100.00
2023-05-05T19:49:55.836Z,100.00
2023-05-05T19:52:24.277Z,100.00
2023-05-05T19:54:52.102Z,100.00
2023-05-05T19:57:20.786Z,100.00
2023-05-05T19:59:50.598Z,100.00
2023-05-05T20:02:20.871Z,100.00
2023-05-05T20:04:49.808Z,100.00
2023-05-05T20:07:19.285Z,100.00
2023-05-05T20:09:46.992Z,100.00
2023-05-05T20:12:17.781Z,100.00
2023-05-05T20:14:46.128Z,100.00
2023-05-05T20:17:16.283Z,100.00
2023-05-05T20:20:01.976Z,100.00
2023-05-05T20:22:31.387Z,100.00
2023-05-05T20:24:59.367Z,100.00
2023-05-05T20:27:28.812Z,100.00
2023-05-05T20:29:56.870Z,100.00
2023-05-05T20:32:25.420Z,100.00
2023-05-05T20:34:54.606Z,100.00
2023-05-05T20:37:27.366Z,100.00
2023-05-05T20:39:55.088Z,100.00
2023-05-05T20:42:23.945Z,100.00
2023-05-05T20:44:54.353Z,100.00
2023-05-05T20:47:23.386Z,100.00
2023-05-05T20:49:52.774Z,100.00
2023-05-05T20:52:21.418Z,100.00
2023-05-05T20:54:49.387Z,100.00
2023-05-05T20:57:17.808Z,100.00
2023-05-05T20:59:58.854Z,100.00
2023-05-05T21:02:27.246Z,100.00
2023-05-05T21:04:55.502Z,100.00
2023-05-05T21:07:23.933Z,100.00
2023-05-05T21:09:52.076Z,100.00
2023-05-05T21:12:20.036Z,100.00
2023-05-05T21:14:48.211Z,100.00
2023-05-05T21:17:17.289Z,100.00
2023-05-05T21:19:47.706Z,100.00
2023-05-05T21:22:16.259Z,100.00
2023-05-05T21:24:44.630Z,100.00
2023-05-05T21:27:13.727Z,100.00
2023-05-05T21:29:42.009Z,100.00
2023-05-05T21:32:11.648Z,100.00
2023-05-05T21:34:39.916Z,100.00
2023-05-05T21:37:08.594Z,100.00
2023-05-05T21:39:36.378Z,100.00
2023-05-05T21:42:04.989Z,100.00
2023-05-05T21:44:33.012Z,100.00
2023-05-05T21:47:01.426Z,100.00
2023-05-05T21:49:30.099Z,100.00
2023-05-05T21:51:58.502Z,100.00
2023-05-05T21:54:26.562Z,100.00
2023-05-05T21:56:54.987Z,100.00
2023-05-05T21:59:22.756Z,100.00
2023-05-05T22:01:51.482Z,100.00
2023-05-05T22:04:19.825Z,100.00
2023-05-05T22:06:48.114Z,100.00
2023-05-05T22:09:15.989Z,100.00
2023-05-05T22:11:44.176Z,100.00
2023-05-05T22:14:11.987Z,100.00
2023-05-05T22:16:40.328Z,100.00
2023-05-05T22:19:08.589Z,100.00
2023-05-05T22:21:37.118Z,100.00
2023-05-05T22:24:05.516Z,100.00
2023-05-05T22:26:33.489Z,100.00
2023-05-05T22:29:01.353Z,100.00
2023-05-05T22:31:30.956Z,100.00
2023-05-05T22:33:59.468Z,100.00
2023-05-05T22:36:28.532Z,100.00
2023-05-05T22:38:56.384Z,100.00
2023-05-05T22:41:25.557Z,100.00
2023-05-05T22:43:53.355Z,100.00
2023-05-05T22:46:21.929Z,100.00
2023-05-05T22:48:49.861Z,100.00
2023-05-05T22:51:20.104Z,100.00
2023-05-05T22:53:49.839Z,100.00
2023-05-05T22:56:17.874Z,100.00
2023-05-05T22:58:47.368Z,100.00
2023-05-05T23:01:16.146Z,100.00
2023-05-05T23:03:44.076Z,100.00
2023-05-05T23:06:12.632Z,100.00
2023-05-05T23:08:42.221Z,100.00
2023-05-05T23:11:10.995Z,100.00
2023-05-05T23:13:39.975Z,100.00
2023-05-05T23:16:09.634Z,100.00
2023-05-05T23:18:39.100Z,100.00
2023-05-05T23:21:07.693Z,100.00
2023-05-05T23:23:35.565Z,100.00
2023-05-05T23:26:03.714Z,100.00
2023-05-05T23:28:31.390Z,100.00
2023-05-05T23:30:59.871Z,100.00
2023-05-05T23:33:32.073Z,100.00
2023-05-05T23:36:03.095Z,100.00
2023-05-05T23:38:31.026Z,97.65
2023-05-05T23:40:59.435Z,97.69
2023-05-05T23:43:27.196Z,96.86
2023-05-05T23:45:55.643Z,96.79
2023-05-05T23:48:24.277Z,97.32
2023-05-05T23:50:53.066Z,95.57
2023-05-05T23:53:20.894Z,94.34
2023-05-05T23:55:49.423Z,93.46
2023-05-05T23:58:17.313Z,94.01
